createdAt,value
2022-08-17T00:00:02.235Z,67.46
2022-08-17T00:01:02.726Z,67.36
2022-08-17T00:02:05.812Z,67.56
2022-08-17T00:03:03.184Z,67.56
2022-08-17T00:04:02.172Z,67.66
2022-08-17T00:05:02.164Z,67.56
2022-08-17T00:06:02.165Z,67.56
2022-08-17T00:07:02.155Z,67.66
2022-08-17T00:08:02.157Z,67.66
2022-08-17T00:09:02.115Z,67.66
2022-08-17T00:10:02.099Z,67.66
2022-08-17T00:11:02.096Z,67.66
2022-08-17T00:12:41.357Z,67.76
2022-08-17T00:13:03.088Z,67.96
2022-08-17T00:14:02.057Z,67.96
2022-08-17T00:15:02.064Z,68.19
2022-08-17T00:16:02.029Z,68.29
2022-08-17T00:17:02.066Z,68.29
2022-08-17T00:18:02.019Z,68.39
2022-08-17T00:19:08.362Z,68.59
2022-08-17T00:20:02.997Z,68.49
2022-08-17T00:21:01.986Z,68.49
2022-08-17T00:22:29.498Z,68.49
2022-08-17T00:23:02.999Z,68.49
2022-08-17T00:24:01.980Z,68.69
2022-08-17T00:25:01.941Z,68.89
2022-08-17T00:26:01.945Z,68.89
2022-08-17T00:27:01.931Z,68.99
2022-08-17T00:28:01.900Z,69.09
2022-08-17T00:29:01.922Z,69.09
2022-08-17T00:30:01.883Z,69.02
2022-08-17T00:31:01.882Z,69.23
2022-08-17T00:32:01.876Z,69.23
2022-08-17T00:33:15.192Z,69.32
2022-08-17T00:34:02.847Z,69.32
2022-08-17T00:35:01.850Z,69.32
2022-08-17T00:36:01.823Z,69.32
2022-08-17T00:37:01.911Z,69.53
2022-08-17T00:38:01.806Z,69.53
2022-08-17T00:39:01.793Z,69.73
2022-08-17T00:40:01.874Z,69.82
2022-08-17T00:41:01.774Z,69.82
2022-08-17T00:42:01.785Z,69.93
2022-08-17T00:43:01.745Z,69.82
2022-08-17T00:44:01.736Z,70.06
2022-08-17T00:45:01.743Z,70.36
2022-08-17T00:46:01.707Z,70.56
2022-08-17T00:47:01.714Z,70.46
2022-08-17T00:48:01.687Z,70.36
2022-08-17T00:49:01.687Z,70.56
2022-08-17T00:50:01.667Z,70.66
2022-08-17T00:51:01.698Z,70.56
2022-08-17T00:52:01.658Z,70.76
2022-08-17T00:53:01.644Z,70.66
2022-08-17T00:54:01.619Z,70.66
2022-08-17T00:55:01.631Z,70.76
2022-08-17T00:56:01.599Z,70.86
2022-08-17T00:57:01.610Z,71.06
2022-08-17T00:58:01.579Z,71.30
2022-08-17T00:59:01.571Z,71.30
2022-08-17T01:00:03.113Z,71.39
2022-08-17T01:01:01.618Z,71.50
2022-08-17T01:02:01.543Z,71.50
2022-08-17T01:03:01.550Z,71.69
2022-08-17T01:04:01.523Z,71.59
2022-08-17T01:05:01.526Z,71.89
2022-08-17T01:06:01.520Z,72.19
2022-08-17T01:07:01.482Z,72.23
2022-08-17T01:08:01.492Z,71.93
2022-08-17T01:09:01.483Z,71.83
2022-08-17T01:10:01.466Z,72.03
2022-08-17T01:11:01.960Z,71.83
2022-08-17T01:12:01.437Z,71.83
2022-08-17T01:13:01.436Z,71.93
2022-08-17T01:14:01.441Z,71.93
2022-08-17T01:15:01.424Z,72.13
2022-08-17T01:16:01.384Z,72.33
2022-08-17T01:17:01.392Z,72.43
2022-08-17T01:18:01.385Z,72.23
2022-08-17T01:19:01.355Z,72.33
2022-08-17T01:20:01.355Z,72.23
2022-08-17T01:21:01.354Z,72.43
2022-08-17T01:22:01.316Z,72.63
2022-08-17T01:23:01.329Z,72.43
2022-08-17T01:24:01.309Z,72.23
2022-08-17T01:25:01.316Z,72.33
2022-08-17T01:26:01.287Z,72.43
2022-08-17T01:27:01.278Z,72.63
2022-08-17T01:28:01.259Z,72.73
2022-08-17T01:29:01.289Z,72.83
2022-08-17T01:30:01.248Z,73.13
2022-08-17T01:31:01.249Z,73.13
2022-08-17T01:32:01.218Z,73.47
2022-08-17T01:33:01.248Z,73.67
2022-08-17T01:34:01.913Z,73.86
2022-08-17T01:35:01.190Z,73.97
2022-08-17T01:36:01.172Z,74.07
2022-08-17T01:37:01.200Z,74.07
2022-08-17T01:38:01.160Z,74.30
2022-08-17T01:39:01.151Z,74.37
2022-08-17T01:40:01.164Z,74.40
2022-08-17T01:41:01.131Z,74.40
2022-08-17T01:42:01.152Z,74.40
2022-08-17T01:43:01.104Z,74.40
2022-08-17T01:44:01.102Z,74.30
2022-08-17T01:45:01.122Z,74.20
2022-08-17T01:46:02.980Z,74.30
2022-08-17T01:47:01.062Z,74.30
2022-08-17T01:48:01.076Z,74.10
2022-08-17T01:49:01.043Z,74.40
2022-08-17T01:50:01.045Z,74.51
2022-08-17T01:51:01.026Z,74.51
2022-08-17T01:52:01.026Z,74.51
2022-08-17T01:53:01.013Z,74.40
2022-08-17T01:54:00.985Z,74.20
2022-08-17T01:55:00.976Z,74.01
2022-08-17T01:56:00.958Z,74.20
2022-08-17T01:57:00.980Z,74.40
2022-08-17T01:58:00.936Z,74.20
2022-08-17T01:59:00.945Z,74.30
2022-08-17T02:00:00.932Z,74.40
2022-08-17T02:01:01.656Z,74.40
2022-08-17T02:02:00.928Z,74.40
2022-08-17T02:03:00.897Z,74.51
2022-08-17T02:04:01.906Z,74.51
2022-08-17T02:05:00.890Z,74.71
2022-08-17T02:06:00.868Z,74.60
2022-08-17T02:07:00.866Z,74.51
2022-08-17T02:08:00.972Z,74.90
2022-08-17T02:09:02.340Z,75.24
2022-08-17T02:10:00.819Z,75.45
2022-08-17T02:11:00.800Z,75.64
2022-08-17T02:12:38.124Z,75.64
2022-08-17T02:13:01.791Z,75.74
2022-08-17T02:14:03.002Z,75.74
2022-08-17T02:15:00.781Z,75.84
2022-08-17T02:16:00.751Z,75.64
2022-08-17T02:17:00.759Z,75.45
2022-08-17T02:18:00.721Z,75.24
2022-08-17T02:19:00.731Z,75.34
2022-08-17T02:20:00.709Z,75.34
2022-08-17T02:21:00.722Z,75.14
2022-08-17T02:22:00.733Z,75.14
2022-08-17T02:23:00.682Z,75.04
2022-08-17T02:24:00.655Z,75.34
2022-08-17T02:25:02.304Z,75.54
2022-08-17T02:26:00.655Z,75.84
2022-08-17T02:27:00.694Z,75.95
2022-08-17T02:28:00.615Z,76.04
2022-08-17T02:29:00.611Z,75.84
2022-08-17T02:30:00.618Z,75.84
2022-08-17T02:31:03.158Z,75.84
2022-08-17T02:32:00.593Z,75.98
2022-08-17T02:33:00.595Z,75.98
2022-08-17T02:34:04.462Z,76.08
2022-08-17T02:35:00.557Z,75.98
2022-08-17T02:36:00.564Z,76.08
2022-08-17T02:37:00.525Z,76.08
2022-08-17T02:38:00.528Z,75.98
2022-08-17T02:39:00.511Z,76.08
2022-08-17T02:40:00.578Z,75.98
2022-08-17T02:41:00.477Z,75.98
2022-08-17T02:42:00.479Z,75.88
2022-08-17T02:43:00.469Z,75.88
2022-08-17T02:44:00.488Z,75.38
2022-08-17T02:45:00.450Z,75.18
2022-08-17T02:46:00.431Z,74.98
2022-08-17T02:47:00.410Z,74.88
2022-08-17T02:48:00.410Z,74.88
2022-08-17T02:49:00.419Z,74.88
2022-08-17T02:50:00.438Z,74.77
2022-08-17T02:51:00.382Z,74.77
2022-08-17T02:52:00.381Z,74.77
2022-08-17T02:53:02.202Z,74.77
2022-08-17T02:54:35.795Z,74.88
2022-08-17T02:55:01.332Z,74.88
2022-08-17T02:56:00.322Z,75.08
2022-08-17T02:57:00.302Z,74.98
2022-08-17T02:58:00.327Z,74.88
2022-08-17T02:59:00.313Z,74.77
2022-08-17T03:00:00.265Z,74.68
2022-08-17T03:01:00.354Z,74.68
2022-08-17T03:02:00.312Z,74.57
2022-08-17T03:03:00.234Z,74.37
2022-08-17T03:04:00.232Z,74.27
2022-08-17T03:05:00.244Z,74.37
2022-08-17T03:06:00.204Z,74.48
2022-08-17T03:07:00.193Z,74.48
2022-08-17T03:08:00.195Z,74.88
2022-08-17T03:09:00.175Z,74.88
2022-08-17T03:10:00.200Z,74.77
2022-08-17T03:11:00.176Z,74.88
2022-08-17T03:12:00.166Z,74.98
2022-08-17T03:13:00.126Z,74.88
2022-08-17T03:14:00.109Z,74.77
2022-08-17T03:15:00.120Z,74.68
2022-08-17T03:16:00.127Z,74.57
2022-08-17T03:17:00.129Z,74.57
2022-08-17T03:18:00.085Z,74.57
2022-08-17T03:19:00.078Z,74.68
2022-08-17T03:20:00.084Z,74.88
2022-08-17T03:21:00.047Z,75.18
2022-08-17T03:22:00.062Z,75.08
2022-08-17T03:23:02.009Z,75.18
2022-08-17T03:24:00.020Z,75.18
2022-08-17T03:25:00.018Z,75.18
2022-08-17T03:25:59.991Z,75.48
2022-08-17T03:27:00.011Z,75.48
2022-08-17T03:27:59.962Z,75.68
2022-08-17T03:28:59.951Z,75.68
2022-08-17T03:29:59.954Z,75.68
2022-08-17T03:31:00.006Z,75.58
2022-08-17T03:31:59.930Z,75.88
2022-08-17T03:32:59.913Z,76.98
2022-08-17T03:33:59.928Z,77.48
2022-08-17T03:34:59.904Z,77.99
2022-08-17T03:35:59.879Z,77.79
2022-08-17T03:36:59.912Z,77.69
2022-08-17T03:38:00.442Z,78.12
2022-08-17T03:38:59.865Z,78.33
2022-08-17T03:39:59.916Z,77.72
2022-08-17T03:41:00.039Z,77.72
2022-08-17T03:41:59.845Z,77.62
2022-08-17T03:42:59.835Z,77.52
2022-08-17T03:43:59.837Z,77.42
2022-08-17T03:44:59.802Z,77.32
2022-08-17T03:45:59.777Z,77.32
2022-08-17T03:46:59.777Z,77.12
2022-08-17T03:47:59.757Z,77.02
2022-08-17T03:48:59.767Z,76.82
2022-08-17T03:49:59.719Z,76.82
2022-08-17T03:50:59.738Z,76.72
2022-08-17T03:51:59.708Z,76.72
2022-08-17T03:52:59.892Z,76.62
2022-08-17T03:53:59.698Z,76.72
2022-08-17T03:54:59.679Z,76.82
2022-08-17T03:55:59.660Z,76.32
2022-08-17T03:56:59.679Z,76.21
2022-08-17T03:57:59.649Z,76.12
2022-08-17T03:58:59.637Z,76.52
2022-08-17T03:59:59.653Z,76.62
2022-08-17T04:00:59.655Z,76.72
2022-08-17T04:01:59.639Z,76.62
2022-08-17T04:02:59.588Z,76.42
2022-08-17T04:03:59.591Z,76.32
2022-08-17T04:04:59.607Z,76.12
2022-08-17T04:05:59.564Z,76.21
2022-08-17T04:06:59.552Z,76.21
2022-08-17T04:07:59.540Z,76.35
2022-08-17T04:08:59.522Z,76.45
2022-08-17T04:09:59.606Z,76.65
2022-08-17T04:10:59.513Z,76.65
2022-08-17T04:12:00.302Z,76.76
2022-08-17T04:13:02.485Z,76.65
2022-08-17T04:13:59.462Z,76.45
2022-08-17T04:14:59.471Z,76.45
2022-08-17T04:15:59.448Z,76.45
2022-08-17T04:16:59.435Z,76.45
2022-08-17T04:17:59.455Z,76.56
2022-08-17T04:18:59.434Z,76.56
2022-08-17T04:19:59.416Z,76.65
2022-08-17T04:20:59.429Z,76.65
2022-08-17T04:21:59.385Z,76.65
2022-08-17T04:22:59.411Z,76.56
2022-08-17T04:23:59.354Z,76.45
2022-08-17T04:24:59.357Z,76.56
2022-08-17T04:25:59.358Z,76.56
2022-08-17T04:26:59.338Z,76.56
2022-08-17T04:27:59.341Z,76.76
2022-08-17T04:28:59.307Z,76.76
2022-08-17T04:29:59.321Z,76.65
2022-08-17T04:30:59.309Z,76.65
2022-08-17T04:31:59.278Z,76.76
2022-08-17T04:33:06.470Z,76.86
2022-08-17T04:34:00.247Z,76.76
2022-08-17T04:34:59.250Z,77.06
2022-08-17T04:35:59.251Z,76.96
2022-08-17T04:36:59.211Z,76.86
2022-08-17T04:37:59.212Z,76.76
2022-08-17T04:38:59.220Z,76.76
2022-08-17T04:40:03.401Z,76.65
2022-08-17T04:41:00.219Z,76.76
2022-08-17T04:41:59.189Z,77.06
2022-08-17T04:43:00.001Z,77.06
2022-08-17T04:43:59.163Z,76.96
2022-08-17T04:44:59.142Z,76.96
2022-08-17T04:45:59.205Z,77.06
2022-08-17T04:46:59.163Z,77.06
2022-08-17T04:47:59.100Z,76.96
2022-08-17T04:48:59.143Z,76.86
2022-08-17T04:49:59.124Z,76.86
2022-08-17T04:50:59.093Z,77.06
2022-08-17T04:52:04.441Z,76.96
2022-08-17T04:53:00.394Z,76.96
2022-08-17T04:53:59.057Z,76.96
2022-08-17T04:54:59.034Z,76.96
2022-08-17T04:55:59.062Z,77.06
2022-08-17T04:56:59.057Z,77.16
2022-08-17T04:57:59.332Z,77.26
2022-08-17T04:58:59.385Z,77.26
2022-08-17T04:59:59.085Z,77.26
2022-08-17T05:00:59.101Z,77.96
2022-08-17T05:01:59.102Z,77.96
2022-08-17T05:02:59.058Z,77.76
2022-08-17T05:03:59.049Z,77.76
2022-08-17T05:04:58.966Z,77.66
2022-08-17T05:05:59.618Z,77.46
2022-08-17T05:06:58.937Z,77.66
2022-08-17T05:08:00.047Z,77.56
2022-08-17T05:08:58.876Z,77.56
2022-08-17T05:09:59.889Z,77.56
2022-08-17T05:10:58.869Z,77.26
2022-08-17T05:11:59.560Z,76.96
2022-08-17T05:12:58.880Z,76.96
2022-08-17T05:13:59.965Z,76.82
2022-08-17T05:14:58.838Z,76.72
2022-08-17T05:15:59.841Z,76.72
2022-08-17T05:16:58.791Z,76.72
2022-08-17T05:17:59.548Z,76.62
2022-08-17T05:18:58.762Z,76.62
2022-08-17T05:19:58.945Z,76.42
2022-08-17T05:20:58.749Z,76.62
2022-08-17T05:21:58.834Z,76.42
2022-08-17T05:22:58.772Z,76.21
2022-08-17T05:23:58.713Z,76.21
2022-08-17T05:24:58.733Z,76.32
2022-08-17T05:25:58.713Z,76.52
2022-08-17T05:27:02.625Z,76.42
2022-08-17T05:27:59.676Z,76.21
2022-08-17T05:28:59.827Z,76.12
2022-08-17T05:29:58.662Z,76.02
2022-08-17T05:30:58.644Z,76.21
2022-08-17T05:31:58.634Z,76.21
2022-08-17T05:32:58.605Z,76.08
2022-08-17T05:33:58.617Z,75.88
2022-08-17T05:34:58.605Z,75.78
2022-08-17T05:35:58.627Z,75.78
2022-08-17T05:36:58.626Z,75.68
2022-08-17T05:37:58.559Z,75.98
2022-08-17T05:38:58.547Z,76.38
2022-08-17T05:39:58.590Z,76.28
2022-08-17T05:40:58.547Z,76.28
2022-08-17T05:41:58.658Z,76.38
2022-08-17T05:42:58.508Z,76.28
2022-08-17T05:43:58.524Z,76.25
2022-08-17T05:44:58.519Z,76.25
2022-08-17T05:45:58.488Z,76.34
2022-08-17T05:46:58.500Z,76.45
2022-08-17T05:47:58.447Z,76.34
2022-08-17T05:48:58.430Z,76.25
2022-08-17T05:49:58.450Z,76.01
2022-08-17T05:50:58.422Z,75.81
2022-08-17T05:51:58.468Z,76.11
2022-08-17T05:52:58.471Z,77.61
2022-08-17T05:53:58.391Z,77.31
2022-08-17T05:54:58.392Z,77.81
2022-08-17T05:55:58.415Z,78.08
2022-08-17T05:56:58.377Z,78.08
2022-08-17T05:57:58.441Z,78.08
2022-08-17T05:58:58.341Z,77.78
2022-08-17T05:59:58.406Z,77.58
2022-08-17T06:00:59.925Z,77.48
2022-08-17T06:01:58.337Z,77.48
2022-08-17T06:02:59.454Z,77.37
2022-08-17T06:03:58.292Z,77.37
2022-08-17T06:04:58.965Z,77.48
2022-08-17T06:05:58.356Z,77.58
2022-08-17T06:06:58.964Z,77.48
2022-08-17T06:07:58.273Z,77.48
2022-08-17T06:08:58.236Z,77.28
2022-08-17T06:09:58.325Z,77.37
2022-08-17T06:10:58.226Z,77.24
2022-08-17T06:12:00.161Z,77.24
2022-08-17T06:12:58.179Z,77.04
2022-08-17T06:13:58.197Z,76.94
2022-08-17T06:14:58.198Z,76.84
2022-08-17T06:15:58.178Z,76.84
2022-08-17T06:16:58.147Z,76.74
2022-08-17T06:17:58.151Z,76.74
2022-08-17T06:18:58.122Z,76.84
2022-08-17T06:19:58.111Z,76.64
2022-08-17T06:20:58.139Z,76.54
2022-08-17T06:21:58.159Z,76.43
2022-08-17T06:22:58.069Z,76.64
2022-08-17T06:23:58.080Z,76.64
2022-08-17T06:24:58.052Z,76.50
2022-08-17T06:25:58.077Z,76.50
2022-08-17T06:26:58.131Z,76.20
2022-08-17T06:27:58.021Z,76.10
2022-08-17T06:28:58.010Z,75.90
2022-08-17T06:29:58.009Z,75.80
2022-08-17T06:31:00.374Z,75.56
2022-08-17T06:31:58.142Z,75.46
2022-08-17T06:32:58.022Z,75.26
2022-08-17T06:33:58.010Z,74.87
2022-08-17T06:34:57.954Z,74.46
2022-08-17T06:35:57.962Z,74.43
2022-08-17T06:36:57.921Z,74.43
2022-08-17T06:37:57.935Z,74.43
2022-08-17T06:38:57.925Z,74.03
2022-08-17T06:39:57.970Z,73.93
2022-08-17T06:40:57.888Z,73.63
2022-08-17T06:41:57.937Z,73.33
2022-08-17T06:43:06.888Z,72.83
2022-08-17T06:43:58.872Z,72.72
2022-08-17T06:44:57.836Z,72.59
2022-08-17T06:45:57.877Z,72.39
2022-08-17T06:46:57.827Z,72.19
2022-08-17T06:47:57.837Z,71.79
2022-08-17T06:48:57.892Z,71.46
2022-08-17T06:49:57.851Z,71.26
2022-08-17T06:50:57.788Z,70.86
2022-08-17T06:51:57.800Z,70.56
2022-08-17T06:52:58.011Z,70.32
2022-08-17T06:53:57.779Z,70.23
2022-08-17T06:54:57.750Z,70.12
2022-08-17T06:55:57.746Z,69.99
2022-08-17T06:56:57.729Z,69.69
2022-08-17T06:57:57.698Z,69.39
2022-08-17T06:58:57.698Z,69.06
2022-08-17T06:59:57.731Z,68.86
2022-08-17T07:00:58.854Z,68.36
2022-08-17T07:01:57.680Z,68.23
2022-08-17T07:02:57.660Z,67.53
2022-08-17T07:03:57.700Z,67.43
2022-08-17T07:04:57.711Z,67.30
2022-08-17T07:05:57.631Z,66.70
2022-08-17T07:06:57.632Z,66.60
2022-08-17T07:07:57.611Z,66.40
2022-08-17T07:08:57.601Z,66.60
2022-08-17T07:09:57.603Z,65.97
2022-08-17T07:10:57.926Z,65.87
2022-08-17T07:11:57.581Z,65.77
2022-08-17T07:12:57.532Z,65.57
2022-08-17T07:13:57.532Z,65.27
2022-08-17T07:14:57.572Z,65.27
2022-08-17T07:15:57.655Z,65.37
2022-08-17T07:16:57.554Z,65.27
2022-08-17T07:17:57.519Z,65.17
2022-08-17T07:18:57.476Z,64.97
2022-08-17T07:19:57.516Z,64.97
2022-08-17T07:20:57.460Z,65.08
2022-08-17T07:21:57.546Z,64.97
2022-08-17T07:22:59.485Z,64.97
2022-08-17T07:23:57.472Z,64.94
2022-08-17T07:24:57.467Z,64.84
2022-08-17T07:25:57.445Z,64.84
2022-08-17T07:26:57.387Z,65.05
2022-08-17T07:27:57.387Z,65.05
2022-08-17T07:28:57.378Z,64.75
2022-08-17T07:29:57.399Z,64.51
2022-08-17T07:30:57.338Z,64.42
2022-08-17T07:31:57.340Z,64.51
2022-08-17T07:32:57.389Z,64.42
2022-08-17T07:33:57.312Z,64.01
2022-08-17T07:34:57.341Z,64.01
2022-08-17T07:35:57.310Z,63.72
2022-08-17T07:36:57.305Z,63.82
2022-08-17T07:37:57.282Z,63.39
2022-08-17T07:38:57.283Z,63.69
2022-08-17T07:39:59.669Z,63.79
2022-08-17T07:40:58.334Z,63.79
2022-08-17T07:41:58.977Z,63.49
2022-08-17T07:42:57.224Z,63.29
2022-08-17T07:43:57.224Z,63.29
2022-08-17T07:44:57.185Z,63.09
2022-08-17T07:45:57.224Z,63.19
2022-08-17T07:46:57.205Z,63.39
2022-08-17T07:47:57.155Z,63.19
2022-08-17T07:48:57.237Z,62.99
2022-08-17T07:49:57.186Z,62.59
2022-08-17T07:50:57.124Z,62.49
2022-08-17T07:51:57.156Z,62.79
2022-08-17T07:52:57.105Z,62.69
2022-08-17T07:54:13.227Z,62.66
2022-08-17T07:54:58.177Z,62.46
2022-08-17T07:55:57.096Z,62.56
2022-08-17T07:56:57.078Z,62.26
2022-08-17T07:57:57.058Z,62.07
2022-08-17T07:58:57.062Z,62.16
2022-08-17T07:59:57.059Z,62.04
2022-08-17T08:00:57.100Z,62.04
2022-08-17T08:01:57.487Z,61.74
2022-08-17T08:02:57.010Z,62.04
2022-08-17T08:03:57.010Z,61.94
2022-08-17T08:05:01.491Z,61.91
2022-08-17T08:05:58.021Z,61.80
2022-08-17T08:06:56.993Z,61.61
2022-08-17T08:07:56.951Z,61.41
2022-08-17T08:08:56.959Z,61.21
2022-08-17T08:09:56.933Z,61.21
2022-08-17T08:10:56.942Z,61.11
2022-08-17T08:11:56.970Z,60.91
2022-08-17T08:12:56.911Z,60.71
2022-08-17T08:13:57.020Z,60.82
2022-08-17T08:14:56.874Z,60.91
2022-08-17T08:15:56.887Z,60.71
2022-08-17T08:16:56.854Z,60.82
2022-08-17T08:17:56.832Z,60.82
2022-08-17T08:18:57.809Z,60.71
2022-08-17T08:19:56.842Z,60.71
2022-08-17T08:20:56.815Z,60.82
2022-08-17T08:21:56.815Z,60.82
2022-08-17T08:22:56.805Z,60.88
2022-08-17T08:23:56.779Z,60.88
2022-08-17T08:24:56.766Z,60.69
2022-08-17T08:25:56.777Z,60.58
2022-08-17T08:26:56.787Z,60.49
2022-08-17T08:27:56.768Z,60.46
2022-08-17T08:28:56.779Z,60.36
2022-08-17T08:29:56.757Z,60.75
2022-08-17T08:30:56.707Z,60.75
2022-08-17T08:31:56.698Z,60.46
2022-08-17T08:32:57.676Z,60.46
2022-08-17T08:33:56.692Z,60.43
2022-08-17T08:35:02.454Z,60.03
2022-08-17T08:35:57.640Z,60.03
2022-08-17T08:37:16.432Z,59.93
2022-08-17T08:37:57.621Z,59.61
2022-08-17T08:38:56.724Z,59.11
2022-08-17T08:39:56.694Z,58.91
2022-08-17T08:40:56.611Z,58.91
2022-08-17T08:41:56.652Z,58.91
2022-08-17T08:42:56.631Z,59.01
2022-08-17T08:43:56.573Z,58.81
2022-08-17T08:45:00.783Z,58.61
2022-08-17T08:45:57.643Z,58.61
2022-08-17T08:46:56.543Z,58.72
2022-08-17T08:47:56.513Z,58.72
2022-08-17T08:48:58.431Z,58.51
2022-08-17T08:50:04.054Z,58.51
2022-08-17T08:50:57.496Z,58.91
2022-08-17T08:51:56.484Z,59.01
2022-08-17T08:52:56.458Z,59.01
2022-08-17T08:53:56.594Z,58.81
2022-08-17T08:54:56.545Z,58.42
2022-08-17T08:55:56.507Z,58.12
2022-08-17T08:57:22.326Z,58.12
2022-08-17T08:57:57.407Z,58.12
2022-08-17T08:58:56.528Z,58.32
2022-08-17T08:59:57.723Z,58.51
2022-08-17T09:00:56.457Z,57.92
2022-08-17T09:01:56.429Z,57.92
2022-08-17T09:02:56.381Z,58.22
2022-08-17T09:04:11.830Z,57.92
2022-08-17T09:05:13.837Z,57.82
2022-08-17T09:05:57.351Z,57.82
2022-08-17T09:06:56.338Z,58.02
2022-08-17T09:07:57.472Z,58.22
2022-08-17T09:08:56.351Z,58.19
2022-08-17T09:09:59.384Z,58.29
2022-08-17T09:10:56.271Z,58.88
2022-08-17T09:12:01.140Z,59.28
2022-08-17T09:12:57.264Z,58.98
2022-08-17T09:13:56.361Z,58.69
2022-08-17T09:14:56.271Z,58.78
2022-08-17T09:15:56.235Z,59.28
2022-08-17T09:16:56.207Z,59.18
2022-08-17T09:18:21.436Z,59.28
2022-08-17T09:19:03.286Z,58.69
2022-08-17T09:19:57.190Z,58.48
2022-08-17T09:20:56.186Z,58.48
2022-08-17T09:21:56.166Z,58.48
2022-08-17T09:22:56.289Z,58.29
2022-08-17T09:23:56.123Z,58.59
2022-08-17T09:24:56.231Z,58.59
2022-08-17T09:25:56.137Z,59.08
2022-08-17T09:26:56.135Z,58.59
2022-08-17T09:27:56.098Z,58.36
2022-08-17T09:28:56.087Z,57.57
2022-08-17T09:29:56.151Z,57.76
2022-08-17T09:30:56.069Z,57.86
2022-08-17T09:31:56.149Z,58.65
2022-08-17T09:32:56.049Z,59.55
2022-08-17T09:33:56.029Z,60.74
2022-08-17T09:34:56.061Z,61.73
2022-08-17T09:35:56.041Z,63.21
2022-08-17T09:36:55.990Z,63.91
2022-08-17T09:37:56.004Z,63.91
2022-08-17T09:38:55.973Z,64.20
2022-08-17T09:39:56.450Z,65.33
2022-08-17T09:40:55.993Z,65.33
2022-08-17T09:41:55.964Z,65.72
2022-08-17T09:42:55.964Z,64.34
2022-08-17T09:43:55.917Z,65.82
2022-08-17T09:44:55.942Z,66.45
2022-08-17T09:45:55.961Z,66.75
2022-08-17T09:46:56.003Z,67.05
2022-08-17T09:47:55.874Z,65.86
2022-08-17T09:48:55.955Z,67.74
2022-08-17T09:49:55.865Z,68.53
2022-08-17T09:51:04.518Z,68.73
2022-08-17T09:51:56.834Z,69.03
2022-08-17T09:52:55.858Z,68.53
2022-08-17T09:54:05.172Z,69.62
2022-08-17T09:54:56.836Z,72.60
2022-08-17T09:55:55.878Z,73.29
2022-08-17T09:57:11.910Z,73.99
2022-08-17T09:57:56.798Z,71.44
2022-08-17T09:58:55.818Z,71.54
2022-08-17T09:59:55.759Z,72.14
2022-08-17T10:00:55.812Z,73.63
2022-08-17T10:01:55.816Z,73.03
2022-08-17T10:02:55.740Z,73.03
2022-08-17T10:03:55.714Z,74.12
2022-08-17T10:04:55.711Z,72.24
2022-08-17T10:05:56.997Z,72.04
2022-08-17T10:06:55.685Z,71.94
2022-08-17T10:07:55.751Z,71.14
2022-08-17T10:08:55.662Z,72.27
2022-08-17T10:09:55.644Z,71.28
2022-08-17T10:10:56.592Z,72.27
2022-08-17T10:11:55.654Z,72.17
2022-08-17T10:12:55.668Z,75.55
2022-08-17T10:13:55.593Z,76.44
2022-08-17T10:14:55.598Z,75.05
2022-08-17T10:15:55.591Z,75.09
2022-08-17T10:16:55.565Z,70.42
2022-08-17T10:17:55.605Z,66.74
2022-08-17T10:18:55.592Z,65.25
2022-08-17T10:19:55.534Z,65.45
2022-08-17T10:20:55.566Z,67.64
2022-08-17T10:22:01.404Z,65.58
2022-08-17T10:22:56.538Z,67.44
2022-08-17T10:23:55.526Z,70.42
2022-08-17T10:25:21.408Z,71.91
2022-08-17T10:25:56.530Z,73.69
2022-08-17T10:26:56.759Z,76.08
2022-08-17T10:27:55.569Z,76.78
2022-08-17T10:28:55.487Z,77.17
2022-08-17T10:29:55.454Z,77.67
2022-08-17T10:31:10.734Z,78.06
2022-08-17T10:31:56.407Z,77.77
2022-08-17T10:32:55.508Z,77.67
2022-08-17T10:33:55.419Z,77.67
2022-08-17T10:34:55.390Z,78.47
2022-08-17T10:35:57.188Z,77.97
2022-08-17T10:36:55.382Z,78.36
2022-08-17T10:37:55.370Z,78.76
2022-08-17T10:38:55.342Z,78.47
2022-08-17T10:39:55.360Z,79.16
2022-08-17T10:40:55.321Z,80.65
2022-08-17T10:41:55.321Z,79.75
2022-08-17T10:42:55.332Z,80.51
2022-08-17T10:43:57.891Z,79.42
2022-08-17T10:44:56.270Z,79.72
2022-08-17T10:46:17.105Z,79.62
2022-08-17T10:46:56.244Z,78.03
2022-08-17T10:47:57.337Z,78.13
2022-08-17T10:48:55.276Z,78.53
2022-08-17T10:49:55.204Z,77.33
2022-08-17T10:50:55.203Z,75.95
2022-08-17T10:51:55.196Z,76.34
2022-08-17T10:52:55.185Z,76.14
2022-08-17T10:53:55.191Z,75.25
2022-08-17T10:54:58.101Z,75.25
2022-08-17T10:55:55.158Z,75.55
2022-08-17T10:56:55.157Z,75.74
2022-08-17T10:57:55.170Z,77.23
2022-08-17T10:58:55.172Z,75.95
2022-08-17T10:59:55.124Z,77.23
2022-08-17T11:00:55.179Z,76.54
2022-08-17T11:01:55.099Z,74.46
2022-08-17T11:02:55.157Z,72.20
2022-08-17T11:03:55.116Z,70.72
2022-08-17T11:04:55.061Z,72.50
2022-08-17T11:05:55.049Z,75.48
2022-08-17T11:06:55.050Z,75.09
2022-08-17T11:07:55.057Z,74.59
2022-08-17T11:08:55.061Z,72.80
2022-08-17T11:09:55.028Z,71.34
2022-08-17T11:10:55.022Z,72.14
2022-08-17T11:11:54.982Z,71.64
2022-08-17T11:12:54.983Z,73.24
2022-08-17T11:13:54.982Z,73.03
2022-08-17T11:14:54.962Z,72.28
2022-08-17T11:15:58.876Z,73.47
2022-08-17T11:16:55.963Z,74.69
2022-08-17T11:17:54.913Z,75.49
2022-08-17T11:18:54.948Z,73.14
2022-08-17T11:19:54.944Z,73.84
2022-08-17T11:20:54.899Z,75.33
2022-08-17T11:21:54.925Z,76.92
2022-08-17T11:22:54.890Z,74.57
2022-08-17T11:23:54.875Z,77.86
2022-08-17T11:24:54.920Z,75.16
2022-08-17T11:25:54.828Z,78.55
2022-08-17T11:26:54.876Z,77.36
2022-08-17T11:27:54.817Z,75.37
2022-08-17T11:28:54.808Z,76.76
2022-08-17T11:29:59.536Z,74.07
2022-08-17T11:30:55.793Z,76.56
2022-08-17T11:31:54.776Z,78.12
2022-08-17T11:32:55.467Z,76.62
2022-08-17T11:33:54.738Z,76.53
2022-08-17T11:34:54.778Z,75.33
2022-08-17T11:35:54.788Z,76.43
2022-08-17T11:36:54.709Z,76.53
2022-08-17T11:37:54.725Z,76.43
2022-08-17T11:38:54.830Z,74.13
2022-08-17T11:39:54.708Z,73.47
2022-08-17T11:40:54.692Z,73.38
2022-08-17T11:41:54.671Z,75.37
2022-08-17T11:42:54.681Z,75.76
2022-08-17T11:43:54.736Z,75.57
2022-08-17T11:44:54.632Z,75.87
2022-08-17T11:45:54.900Z,76.17
2022-08-17T11:46:54.668Z,76.10
2022-08-17T11:48:23.765Z,76.79
2022-08-17T11:48:55.583Z,75.90
2022-08-17T11:49:54.599Z,76.70
2022-08-17T11:50:54.583Z,76.00
2022-08-17T11:51:54.581Z,76.36
2022-08-17T11:52:54.554Z,76.66
2022-08-17T11:54:14.682Z,77.36
2022-08-17T11:55:03.634Z,75.67
2022-08-17T11:55:55.785Z,75.16
2022-08-17T11:56:54.508Z,76.03
2022-08-17T11:57:54.507Z,73.64
2022-08-17T11:58:54.546Z,73.74
2022-08-17T11:59:54.494Z,74.43
2022-08-17T12:00:54.475Z,74.33
2022-08-17T12:01:54.438Z,75.23
2022-08-17T12:02:54.468Z,76.43
2022-08-17T12:03:55.801Z,76.32
2022-08-17T12:04:54.459Z,76.39
2022-08-17T12:05:54.413Z,76.09
2022-08-17T12:06:54.389Z,75.79
2022-08-17T12:07:54.429Z,74.30
2022-08-17T12:08:55.308Z,74.20
2022-08-17T12:09:54.369Z,75.69
2022-08-17T12:10:54.382Z,75.59
2022-08-17T12:12:11.140Z,75.36
2022-08-17T12:12:55.391Z,75.06
2022-08-17T12:13:54.431Z,75.16
2022-08-17T12:15:11.420Z,74.86
2022-08-17T12:15:55.321Z,74.86
2022-08-17T12:16:54.285Z,74.43
2022-08-17T12:17:54.657Z,75.02
2022-08-17T12:18:54.271Z,75.12
2022-08-17T12:19:54.333Z,74.19
2022-08-17T12:20:56.742Z,75.38
2022-08-17T12:21:54.254Z,74.35
2022-08-17T12:22:54.244Z,73.07
2022-08-17T12:23:54.223Z,72.33
2022-08-17T12:24:54.245Z,71.84
2022-08-17T12:25:54.195Z,71.74
2022-08-17T12:26:54.207Z,72.73
2022-08-17T12:28:06.839Z,74.12
2022-08-17T12:28:55.156Z,74.02
2022-08-17T12:29:54.137Z,73.72
2022-08-17T12:30:54.172Z,73.13
2022-08-17T12:31:54.137Z,74.02
2022-08-17T12:32:54.156Z,72.63
2022-08-17T12:33:54.120Z,72.60
2022-08-17T12:34:54.085Z,73.19
2022-08-17T12:35:59.212Z,72.66
2022-08-17T12:36:55.078Z,72.23
2022-08-17T12:37:54.080Z,71.90
2022-08-17T12:38:54.079Z,71.80
2022-08-17T12:39:54.086Z,70.71
2022-08-17T12:40:54.020Z,70.12
2022-08-17T12:41:57.381Z,71.31
2022-08-17T12:42:55.011Z,70.02
2022-08-17T12:43:53.993Z,69.36
2022-08-17T12:44:54.086Z,70.45
2022-08-17T12:45:53.982Z,70.35
2022-08-17T12:46:53.976Z,71.34
2022-08-17T12:47:54.022Z,72.73
2022-08-17T12:48:59.657Z,72.53
2022-08-17T12:49:54.953Z,70.84
2022-08-17T12:50:53.950Z,69.98
2022-08-17T12:51:53.944Z,70.09